KBKW/BKW METAR and TAF weather

Enter ICAO airport designator
Station Type Date Time Source
KBKW METAR 2020/07/11 18:51 UTC NOAA

KBKW 111851Z AUTO 31011KT 10SM FEW043 SCT050 25/15 A2996 RMK AO2 SLP108 T02500150


Station Type Date Time Source
KBKW Decoded METAR 2020/07/11 18:51 UTC NOAA

RALEIGH COUNTY MEM AIRPORT , WV, United States (KBKW) 37-48N 081-07W 764M
Jul 11, 2020 - 02:51 PM EDT / 2020.07.11 1851 UTC
Wind: from the NW (310 degrees) at 13 MPH (11 KT):0
Visibility: 10 mile(s):0
Sky conditions: partly cloudy
Temperature: 77.0 F (25.0 C)
Dew Point: 59.0 F (15.0 C)
Relative Humidity: 53%
Pressure (altimeter): 29.96 in. Hg (1014 hPa)
ob: KBKW 111851Z AUTO 31011KT 10SM FEW043 SCT050 25/15 A2996 RMK AO2 SLP108 T02500150
cycle: 19

Station Type Date Time Source
KBKW TAF 2020/07/11 18:22 UTC NOAA

TAF KBKW 111720Z 1118/1218 31014G20KT P6SM BKN040
FM120000 31007KT P6SM FEW250
FM121200 21003KT P6SM -SHRA BKN050
FM121500 25006KT P6SM VCTS BKN050CB

Example: see airport list